Time;durP1;ratioP1;P1;durP2;ratioP2;P2;SDS_P1;SDS_P2;PMS_P1;PMS_P2;Temp;Humidity;BMP_temperature;BMP_pressure;BME280_temperature;BME280_humidity;BME280_pressure;Samples;Min_cycle;Max_cycle;Signal;HPM_P1;HPM_P2
2022/12/16 00:01:07;;;;;;;35.90;14.98;;;-0.80;1.00;;;;;;5050969;28;20924;-55
2022/12/16 00:03:33;;;;;;;31.67;14.40;;;-0.60;1.00;;;;;;5051748;28;20393;-55
2022/12/16 00:06:02;;;;;;;33.70;15.87;;;-0.70;99.90;;;;;;5050501;28;20436;-55
2022/12/16 00:08:28;;;;;;;34.25;15.73;;;-0.70;99.90;;;;;;5051457;28;20386;-58
2022/12/16 00:10:57;;;;;;;28.92;14.63;;;-0.70;99.90;;;;;;5050546;28;20416;-60
2022/12/16 00:13:23;;;;;;;33.23;13.90;;;-0.70;99.90;;;;;;5051440;28;21201;-61
2022/12/16 00:15:48;;;;;;;42.87;17.10;;;-0.90;99.90;;;;;;5051318;28;20476;-68
2022/12/16 00:18:14;;;;;;;37.80;15.63;;;-0.80;99.90;;;;;;5051232;28;20390;-56
2022/12/16 00:20:49;;;;;;;34.58;15.57;;;-0.80;1.00;;;;;;5051451;28;20778;-56
2022/12/16 00:23:15;;;;;;;32.70;15.70;;;-0.70;1.00;;;;;;5050102;28;20456;-56
2022/12/16 00:25:42;;;;;;;36.35;16.23;;;-0.70;99.90;;;;;;5051230;28;20796;-56
2022/12/16 00:28:08;;;;;;;38.85;16.42;;;-0.70;99.90;;;;;;5050295;28;20432;-55
2022/12/16 00:30:34;;;;;;;32.53;16.20;;;-0.80;1.00;;;;;;5050988;28;20370;-56
2022/12/16 00:33:00;;;;;;;32.30;14.20;;;-0.70;99.90;;;;;;5049919;28;20463;-56
2022/12/16 00:35:25;;;;;;;40.28;16.67;;;-0.70;99.90;;;;;;5032488;28;20467;-59
2022/12/16 00:37:51;;;;;;;36.00;15.30;;;-0.70;99.90;;;;;;5050898;28;20389;-71
2022/12/16 00:40:16;;;;;;;29.23;15.07;;;-0.60;99.90;;;;;;5050327;28;20447;-61
2022/12/16 00:42:42;;;;;;;37.00;15.00;;;-0.40;19.30;;;;;;5050536;28;20715;-56
2022/12/16 00:45:08;;;;;;;32.80;15.50;;;-0.60;91.70;;;;;;5049870;28;20382;-56
2022/12/16 00:47:33;;;;;;;40.10;16.10;;;-0.60;99.90;;;;;;5050832;28;20859;-56
2022/12/16 00:49:59;;;;;;;32.55;14.93;;;-0.50;94.00;;;;;;5049843;28;20732;-56
2022/12/16 00:52:24;;;;;;;31.10;15.23;;;-0.40;1.00;;;;;;5050396;28;20413;-56
2022/12/16 00:54:50;;;;;;;31.90;16.27;;;-0.40;99.90;;;;;;5050510;28;20401;-70
2022/12/16 00:57:15;;;;;;;32.60;15.17;;;-0.40;99.90;;;;;;5049824;28;20377;-56
2022/12/16 00:59:41;;;;;;;36.40;15.80;;;-0.40;99.90;;;;;;5050399;28;20800;-61
2022/12/16 01:02:06;;;;;;;37.60;16.17;;;-0.40;99.90;;;;;;5049743;28;20393;-57
2022/12/16 01:04:32;;;;;;;33.70;14.73;;;-0.50;99.90;;;;;;5050358;28;20386;-56
2022/12/16 01:06:58;;;;;;;33.63;15.35;;;-0.50;99.90;;;;;;5049642;28;20455;-65
2022/12/16 01:09:23;;;;;;;39.93;15.60;;;-0.40;1.00;;;;;;5050368;28;20378;-57
2022/12/16 01:11:49;;;;;;;38.10;15.03;;;-0.10;99.90;;;;;;5050298;28;20910;-56
2022/12/16 01:14:14;;;;;;;35.88;16.75;;;-0.50;1.00;;;;;;5031827;28;20389;-56
2022/12/16 01:16:40;;;;;;;33.53;14.50;;;-0.50;1.00;;;;;;5050576;28;20377;-56
2022/12/16 01:19:05;;;;;;;33.03;15.87;;;-0.50;1.00;;;;;;5049248;28;20389;-56
2022/12/16 01:21:31;;;;;;;32.10;14.10;;;-0.50;99.90;;;;;;5050188;28;20417;-56
2022/12/16 01:23:57;;;;;;;35.40;14.47;;;-0.40;1.00;;;;;;5049265;28;20413;-56
2022/12/16 01:26:22;;;;;;;28.90;14.60;;;-0.40;1.00;;;;;;5050166;28;20480;-57
2022/12/16 01:28:48;;;;;;;29.33;13.63;;;-0.50;1.00;;;;;;5050238;28;20488;-56
2022/12/16 01:31:16;;;;;;;36.50;15.93;;;-0.50;8.20;;;;;;5048990;28;20389;-56
2022/12/16 01:33:42;;;;;;;34.17;14.80;;;-0.50;1.00;;;;;;5049801;28;20464;-56
2022/12/16 01:36:08;;;;;;;33.25;14.95;;;-0.40;94.60;;;;;;5049190;28;20429;-56
2022/12/16 01:38:35;;;;;;;27.83;14.02;;;-0.40;1.00;;;;;;5049753;28;20903;-56
2022/12/16 01:41:01;;;;;;;33.33;14.75;;;-0.40;1.00;;;;;;5048874;28;20390;-56
2022/12/16 01:43:33;;;;;;;31.88;13.50;;;-0.40;1.00;;;;;;5049834;28;20386;-56
2022/12/16 01:46:07;;;;;;;29.23;13.50;;;-0.50;1.00;;;;;;5049410;28;20386;-56
2022/12/16 01:49:15;;;;;;;35.28;14.02;;;-0.60;1.00;;;;;;5049684;28;20398;-56
2022/12/16 01:51:43;;;;;;;32.17;14.80;;;-0.60;99.90;;;;;;5048778;28;20446;-56
2022/12/16 01:54:23;;;;;;;30.40;14.88;;;-0.60;91.70;;;;;;5047799;28;20473;-56
2022/12/16 01:56:59;;;;;;;34.15;15.15;;;-0.60;99.90;;;;;;5049480;28;20386;-57
2022/12/16 01:59:28;;;;;;;32.73;13.10;;;-0.50;99.90;;;;;;5049460;28;20389;-60
2022/12/16 02:01:55;;;;;;;37.03;15.48;;;-0.50;1.00;;;;;;5048937;28;20373;-71
2022/12/16 02:04:21;;;;;;;31.88;14.68;;;-0.50;99.90;;;;;;5049670;28;20381;-56
2022/12/16 02:06:47;;;;;;;33.63;13.93;;;-0.50;99.90;;;;;;5049596;28;20392;-56
2022/12/16 02:09:15;;;;;;;27.70;13.80;;;-0.50;38.30;;;;;;5048673;28;21055;-56
2022/12/16 02:11:59;;;;;;;32.88;15.25;;;-0.50;99.90;;;;;;5049553;28;20386;-56
2022/12/16 02:15:02;;;;;;;32.47;14.13;;;-0.60;99.90;;;;;;5049249;28;20804;-56
2022/12/16 02:17:43;;;;;;;29.17;14.25;;;-0.60;1.00;;;;;;5018000;28;20889;-56
2022/12/16 02:20:38;;;;;;;28.25;15.32;;;-0.60;99.90;;;;;;5048650;28;20413;-66
2022/12/16 02:23:31;;;;;;;29.45;14.70;;;-0.60;1.00;;;;;;5048595;28;20405;-56
2022/12/16 02:26:34;;;;;;;34.03;14.25;;;-0.60;1.00;;;;;;5048453;28;20412;-56
2022/12/16 02:29:14;;;;;;;34.90;13.27;;;-0.50;1.00;;;;;;5046262;28;20484;-56
2022/12/16 02:32:02;;;;;;;30.58;14.20;;;-0.50;99.90;;;;;;5049336;28;20374;-56
2022/12/16 02:34:37;;;;;;;32.08;15.82;;;-0.50;1.00;;;;;;5048929;28;20405;-59
2022/12/16 02:37:36;;;;;;;34.83;14.90;;;-0.30;1.00;;;;;;5048038;28;20906;-56
2022/12/16 02:40:23;;;;;;;30.43;15.70;;;-0.40;99.90;;;;;;5032045;28;20464;-56
2022/12/16 02:42:54;;;;;;;34.97;15.32;;;-0.40;99.90;;;;;;5049196;28;20409;-59
2022/12/16 02:45:27;;;;;;;29.65;14.52;;;-0.40;99.90;;;;;;5048683;28;20420;-57
2022/12/16 02:47:53;;;;;;;31.05;14.90;;;-0.40;99.90;;;;;;5048965;28;20412;-71
2022/12/16 02:50:27;;;;;;;32.97;13.83;;;-0.40;99.90;;;;;;5048466;28;20391;-56
2022/12/16 02:52:54;;;;;;;33.80;14.40;;;-0.40;47.10;;;;;;5048968;28;20445;-71
2022/12/16 02:55:24;;;;;;;33.05;15.55;;;-0.40;92.70;;;;;;5048755;28;20392;-56
2022/12/16 02:58:08;;;;;;;27.98;13.73;;;-0.40;47.00;;;;;;5049019;28;21024;-57
2022/12/16 03:00:43;;;;;;;32.38;14.73;;;-0.40;90.00;;;;;;5048741;28;20465;-56
2022/12/16 03:03:18;;;;;;;30.50;14.55;;;-0.40;99.90;;;;;;5048222;28;20389;-58
2022/12/16 03:05:47;;;;;;;23.77;11.30;;;-0.40;99.90;;;;;;5052194;28;20417;-57
2022/12/16 03:08:28;;;;;;;29.65;13.48;;;-0.40;1.00;;;;;;5051598;28;20404;-58
2022/12/16 03:10:58;;;;;;;28.00;12.27;;;-0.50;1.00;;;;;;5052086;28;20815;-72
2022/12/16 03:13:26;;;;;;;27.10;12.65;;;-0.50;99.90;;;;;;5052510;28;20905;-59
2022/12/16 03:15:53;;;;;;;30.13;13.13;;;-0.40;99.90;;;;;;5052633;28;20472;-58
2022/12/16 03:18:20;;;;;;;28.15;12.75;;;-0.30;1.00;;;;;;5051935;28;20386;-58
2022/12/16 03:20:52;;;;;;;28.07;12.30;;;-0.50;1.00;;;;;;5052537;28;20381;-57
2022/12/16 03:23:27;;;;;;;35.00;14.20;;;-0.60;1.00;;;;;;5051635;28;20877;-58
2022/12/16 03:26:00;;;;;;;27.77;12.15;;;-0.50;99.90;;;;;;5052356;28;20381;-57
2022/12/16 03:28:30;;;;;;;31.98;13.10;;;-0.50;99.90;;;;;;5052430;28;20775;-60
2022/12/16 03:31:08;;;;;;;28.33;13.30;;;-0.60;99.90;;;;;;5051617;28;20458;-72
2022/12/16 03:33:38;;;;;;;28.27;12.10;;;-0.50;99.90;;;;;;5052161;28;20432;-57
2022/12/16 03:36:15;;;;;;;27.10;12.52;;;-0.50;99.90;;;;;;5051016;28;20455;-57
2022/12/16 03:38:43;;;;;;;28.13;14.43;;;-0.40;1.00;;;;;;5034220;28;20377;-58
2022/12/16 03:41:10;;;;;;;24.80;11.98;;;-0.50;1.00;;;;;;5051181;28;20389;-57
2022/12/16 03:43:37;;;;;;;29.15;12.77;;;-0.60;1.00;;;;;;5051984;28;20393;-57
2022/12/16 03:46:06;;;;;;;28.60;12.10;;;-0.60;30.50;;;;;;5051493;28;20386;-57
2022/12/16 03:48:32;;;;;;;28.45;11.38;;;-0.60;1.00;;;;;;5052003;28;20923;-58
2022/12/16 03:50:58;;;;;;;24.92;11.60;;;-0.50;1.00;;;;;;5050843;28;20377;-58
2022/12/16 03:53:25;;;;;;;30.05;12.57;;;-0.50;1.00;;;;;;5051876;28;20397;-58
2022/12/16 03:55:52;;;;;;;25.02;12.70;;;-0.60;1.00;;;;;;5051618;28;20466;-58
2022/12/16 03:58:18;;;;;;;29.42;12.05;;;-0.60;99.90;;;;;;5051102;28;20392;-58
2022/12/16 04:00:44;;;;;;;26.63;12.80;;;-0.50;99.90;;;;;;5051761;28;20381;-58
2022/12/16 04:03:10;;;;;;;25.67;12.35;;;-0.50;99.90;;;;;;5050223;28;20731;-58
2022/12/16 04:05:36;;;;;;;26.70;11.40;;;-0.50;99.90;;;;;;5051260;28;20390;-58
2022/12/16 04:08:01;;;;;;;29.90;12.90;;;-0.50;38.10;;;;;;5051072;28;20381;-61
2022/12/16 04:24:18;;;;;;;26.00;11.07;;;-0.50;43.60;;;;;;5050531;28;20415;-57
2022/12/16 04:29:29;;;;;;;23.38;10.25;;;-0.50;1.00;;;;;;5051120;28;20458;-58
2022/12/16 04:31:55;;;;;;;22.95;11.23;;;-0.50;1.00;;;;;;5050399;28;20813;-71
2022/12/16 04:34:28;;;;;;;24.33;10.20;;;-0.40;1.00;;;;;;5050902;28;20909;-58
